createdAt,value
2023-05-11T00:00:34.684Z,24.52
2023-05-11T00:03:01.388Z,26.95
2023-05-11T00:05:27.989Z,24.60
2023-05-11T00:07:54.534Z,28.48
2023-05-11T00:10:21.246Z,24.15
2023-05-11T00:12:47.793Z,29.27
2023-05-11T00:15:14.452Z,25.88
2023-05-11T00:17:43.293Z,24.20
2023-05-11T00:20:12.356Z,28.55
2023-05-11T00:22:39.271Z,25.75
2023-05-11T00:25:06.768Z,26.92
2023-05-11T00:27:33.450Z,26.02
2023-05-11T00:30:00.033Z,30.10
2023-05-11T00:32:26.888Z,31.40
2023-05-11T00:34:53.454Z,33.25
2023-05-11T00:37:20.071Z,32.28
2023-05-11T00:39:46.604Z,35.72
2023-05-11T00:42:13.189Z,36.08
2023-05-11T00:44:39.768Z,39.95
2023-05-11T00:47:07.359Z,32.30
2023-05-11T00:49:34.158Z,38.58
2023-05-11T00:52:03.097Z,37.28
2023-05-11T00:54:30.949Z,35.42
2023-05-11T00:56:57.586Z,30.50
2023-05-11T00:59:24.439Z,28.88
2023-05-11T01:01:51.359Z,30.63
2023-05-11T01:04:18.102Z,29.67
2023-05-11T01:07:03.202Z,34.38
2023-05-11T01:09:29.752Z,33.50
2023-05-11T01:12:07.497Z,31.67
2023-05-11T01:14:41.579Z,34.45
2023-05-11T01:17:15.007Z,33.70
2023-05-11T01:19:46.939Z,34.08
2023-05-11T01:22:48.655Z,38.85
2023-05-11T01:25:34.802Z,37.40
2023-05-11T01:28:20.465Z,37.75
2023-05-11T01:30:57.751Z,43.08
2023-05-11T01:33:33.154Z,42.22
2023-05-11T01:36:04.454Z,39.63
2023-05-11T01:38:35.544Z,41.05
2023-05-11T01:41:12.349Z,41.33
2023-05-11T01:43:40.841Z,45.90
2023-05-11T01:46:10.381Z,37.92
2023-05-11T01:48:40.862Z,34.80
2023-05-11T01:51:08.929Z,42.58
2023-05-11T01:53:38.468Z,30.15
2023-05-11T01:58:34.533Z,30.05
2023-05-11T02:01:04.014Z,32.97
2023-05-11T02:06:05.383Z,27.60
2023-05-11T02:08:33.876Z,29.15
2023-05-11T02:11:02.984Z,27.48
2023-05-11T02:13:30.635Z,26.02
2023-05-11T02:16:01.338Z,23.95
2023-05-11T02:18:30.124Z,28.38
2023-05-11T02:20:59.086Z,25.90
2023-05-11T02:23:27.703Z,23.98
2023-05-11T02:25:55.382Z,25.07
2023-05-11T02:28:22.508Z,23.00
2023-05-11T02:30:56.911Z,24.73
2023-05-11T02:33:30.889Z,26.42
2023-05-11T02:35:59.255Z,28.88
2023-05-11T02:38:37.493Z,22.85
2023-05-11T02:41:11.811Z,26.15
2023-05-11T02:43:42.351Z,21.13
2023-05-11T02:46:15.151Z,22.95
2023-05-11T02:48:45.423Z,19.70
2023-05-11T02:51:15.938Z,23.65
2023-05-11T02:53:50.463Z,27.00
2023-05-11T02:56:17.972Z,24.30
2023-05-11T02:58:44.544Z,21.17
2023-05-11T03:01:22.114Z,24.65
2023-05-11T03:03:48.942Z,25.98
2023-05-11T03:06:15.811Z,24.15
2023-05-11T03:08:43.015Z,25.38
2023-05-11T03:11:12.485Z,27.13
2023-05-11T03:13:39.323Z,27.23
2023-05-11T03:16:07.908Z,27.05
2023-05-11T03:18:36.747Z,28.08
2023-05-11T03:21:05.149Z,29.58
2023-05-11T03:23:32.761Z,25.77
2023-05-11T03:26:00.431Z,24.33
2023-05-11T03:28:28.719Z,26.30
2023-05-11T03:31:01.707Z,25.88
2023-05-11T03:33:30.326Z,28.10
2023-05-11T03:35:59.983Z,27.60
2023-05-11T03:38:30.713Z,26.27
2023-05-11T03:43:30.045Z,27.45
2023-05-11T03:45:57.912Z,29.73
2023-05-11T03:48:26.001Z,29.77
2023-05-11T03:50:53.127Z,30.50
2023-05-11T03:53:20.718Z,29.63
2023-05-11T03:55:48.187Z,32.47
2023-05-11T03:58:15.038Z,29.17
2023-05-11T04:00:42.987Z,28.30
2023-05-11T04:03:09.999Z,30.95
2023-05-11T04:05:38.241Z,25.87
2023-05-11T04:08:08.189Z,27.35
2023-05-11T04:10:35.015Z,25.10
2023-05-11T04:13:02.351Z,26.77
2023-05-11T04:15:29.892Z,26.75
2023-05-11T04:17:56.538Z,24.80
2023-05-11T04:20:23.104Z,24.25
2023-05-11T04:22:49.790Z,24.98
2023-05-11T04:25:16.579Z,23.05
2023-05-11T04:27:43.238Z,22.80
2023-05-11T04:30:10.147Z,24.08
2023-05-11T04:32:36.801Z,21.48
2023-05-11T04:35:03.891Z,20.60
2023-05-11T04:37:34.416Z,21.42
2023-05-11T04:40:04.307Z,21.77
2023-05-11T04:42:36.154Z,19.90
2023-05-11T04:45:05.371Z,23.77
2023-05-11T04:47:31.970Z,20.17
2023-05-11T04:49:59.297Z,19.90
2023-05-11T04:52:25.928Z,17.27
2023-05-11T04:54:53.079Z,20.25
2023-05-11T04:57:19.860Z,21.83
2023-05-11T04:59:47.781Z,18.83
2023-05-11T05:02:14.436Z,21.38
2023-05-11T05:04:41.001Z,22.83
2023-05-11T05:07:07.841Z,22.48
2023-05-11T05:09:34.425Z,20.42
2023-05-11T05:12:01.575Z,23.95
2023-05-11T05:14:28.154Z,24.88
2023-05-11T05:16:54.832Z,21.98
2023-05-11T05:19:21.822Z,25.25
2023-05-11T05:21:50.187Z,21.75
2023-05-11T05:24:16.789Z,23.02
2023-05-11T05:26:43.483Z,24.45
2023-05-11T05:29:12.079Z,24.27
2023-05-11T05:31:38.709Z,23.38
2023-05-11T05:34:06.556Z,23.05
2023-05-11T05:36:33.457Z,24.25
2023-05-11T05:39:00.035Z,22.38
2023-05-11T05:41:26.972Z,20.30
2023-05-11T05:43:54.412Z,21.17
2023-05-11T05:46:21.755Z,23.05
2023-05-11T05:48:48.787Z,22.50
2023-05-11T05:51:16.270Z,21.70
2023-05-11T05:53:43.595Z,22.35
2023-05-11T05:56:10.197Z,21.98
2023-05-11T05:58:36.739Z,23.75
2023-05-11T06:01:03.561Z,23.27
2023-05-11T06:03:30.305Z,20.60
2023-05-11T06:05:57.186Z,20.38
2023-05-11T06:08:24.427Z,19.67
2023-05-11T06:10:51.021Z,21.02
2023-05-11T06:13:17.752Z,21.55
2023-05-11T06:15:44.602Z,20.85
2023-05-11T06:18:23.221Z,19.03
2023-05-11T06:20:49.893Z,24.27
2023-05-11T06:23:17.803Z,20.88
2023-05-11T06:25:44.739Z,22.15
2023-05-11T06:28:11.977Z,18.88
2023-05-11T06:30:39.529Z,22.67
2023-05-11T06:33:08.523Z,20.42
2023-05-11T06:35:38.632Z,20.42
2023-05-11T06:38:08.247Z,21.73
2023-05-11T06:40:36.300Z,21.25
2023-05-11T06:43:02.924Z,23.38
2023-05-11T06:45:45.182Z,23.65
2023-05-11T06:50:38.953Z,28.00
2023-05-11T06:53:05.534Z,24.13
2023-05-11T06:55:32.412Z,23.05
2023-05-11T06:57:59.458Z,25.00
2023-05-11T07:00:26.170Z,24.33
2023-05-11T07:02:52.934Z,24.20
2023-05-11T07:05:19.612Z,28.10
2023-05-11T07:07:46.379Z,29.35
2023-05-11T07:10:12.953Z,26.00
2023-05-11T07:12:39.582Z,24.92
2023-05-11T07:15:07.093Z,24.63
2023-05-11T07:17:33.720Z,23.90
2023-05-11T07:20:00.406Z,27.02
2023-05-11T07:22:26.969Z,27.25
2023-05-11T07:24:53.601Z,28.83
2023-05-11T07:27:20.113Z,25.52
2023-05-11T07:29:46.674Z,23.27
2023-05-11T07:32:13.233Z,25.38
2023-05-11T07:34:41.161Z,23.05
2023-05-11T07:37:08.335Z,24.15
2023-05-11T07:39:35.125Z,21.20
2023-05-11T07:42:01.713Z,21.30
2023-05-11T07:44:28.312Z,20.98
2023-05-11T07:46:55.057Z,21.05
2023-05-11T07:49:28.228Z,17.33
2023-05-11T07:52:06.343Z,14.40
2023-05-11T07:54:32.985Z,15.10
2023-05-11T07:57:01.199Z,13.95
2023-05-11T07:59:27.791Z,15.27
2023-05-11T08:01:54.814Z,15.13
2023-05-11T08:04:21.381Z,18.52
2023-05-11T08:06:48.287Z,17.45
2023-05-11T08:09:15.340Z,18.52
2023-05-11T08:11:41.939Z,20.08
2023-05-11T08:14:08.536Z,18.48
2023-05-11T08:16:37.041Z,19.33
2023-05-11T08:19:03.826Z,19.00
2023-05-11T08:21:30.579Z,19.83
2023-05-11T08:23:57.131Z,20.15
2023-05-11T08:26:23.813Z,21.73
2023-05-11T08:28:52.076Z,20.67
2023-05-11T08:31:18.900Z,19.42
2023-05-11T08:33:45.719Z,22.80
2023-05-11T08:36:15.500Z,22.52
2023-05-11T08:38:42.177Z,21.77
2023-05-11T08:41:12.381Z,23.08
2023-05-11T08:43:40.200Z,22.25
2023-05-11T08:46:08.626Z,24.52
2023-05-11T08:48:35.948Z,25.17
2023-05-11T08:51:04.322Z,25.60
2023-05-11T08:53:30.958Z,24.70
2023-05-11T08:55:59.345Z,22.98
2023-05-11T08:58:27.313Z,24.95
2023-05-11T09:00:54.834Z,24.55
2023-05-11T09:03:22.393Z,24.70
2023-05-11T09:05:49.628Z,25.17
2023-05-11T09:08:18.682Z,23.00
2023-05-11T09:10:45.431Z,24.20
2023-05-11T09:13:12.208Z,22.80
2023-05-11T09:15:39.046Z,20.52
2023-05-11T09:18:06.019Z,21.80
2023-05-11T09:20:34.246Z,23.13
2023-05-11T09:23:02.255Z,25.10
2023-05-11T09:25:33.521Z,25.75
2023-05-11T09:28:00.580Z,26.95
2023-05-11T09:30:27.638Z,25.70
2023-05-11T09:32:59.608Z,23.02
2023-05-11T09:35:30.594Z,26.77
2023-05-11T09:38:07.824Z,24.02
2023-05-11T09:40:39.726Z,26.83
2023-05-11T09:43:21.374Z,22.92
2023-05-11T09:45:50.019Z,25.52
2023-05-11T09:48:16.930Z,27.17
2023-05-11T09:50:43.784Z,27.38
2023-05-11T09:53:11.089Z,26.83
2023-05-11T09:55:38.056Z,29.45
2023-05-11T09:58:04.740Z,28.15
2023-05-11T10:00:32.140Z,26.75
2023-05-11T10:03:03.152Z,29.55
2023-05-11T10:05:31.928Z,27.08
2023-05-11T10:08:00.902Z,22.35
2023-05-11T10:10:29.670Z,20.40
2023-05-11T10:12:58.871Z,19.92
2023-05-11T10:15:31.905Z,18.90
2023-05-11T10:18:01.039Z,14.90
2023-05-11T10:20:27.917Z,15.82
2023-05-11T10:22:55.993Z,16.20
2023-05-11T10:25:23.737Z,13.52
2023-05-11T10:27:51.286Z,13.35
2023-05-11T10:30:18.215Z,12.00
2023-05-11T10:32:49.299Z,9.32
2023-05-11T10:35:16.345Z,11.68
2023-05-11T10:37:43.392Z,10.02
2023-05-11T10:40:12.017Z,11.45
2023-05-11T10:43:13.542Z,10.03
2023-05-11T10:46:00.342Z,7.85
2023-05-11T10:49:08.306Z,9.82
2023-05-11T10:51:44.114Z,8.15
2023-05-11T10:54:16.803Z,8.82
2023-05-11T10:57:13.226Z,11.65
2023-05-11T11:00:08.979Z,9.65
2023-05-11T11:02:36.103Z,11.82
2023-05-11T11:05:05.862Z,13.55
2023-05-11T11:07:32.669Z,11.55
2023-05-11T11:10:05.094Z,11.25
2023-05-11T11:12:34.767Z,11.88
2023-05-11T11:15:06.555Z,14.73
2023-05-11T11:17:35.393Z,12.63
2023-05-11T11:20:04.683Z,11.50
2023-05-11T11:22:34.488Z,13.30
2023-05-11T11:25:15.012Z,12.45
2023-05-11T11:27:41.662Z,12.32
2023-05-11T11:30:19.066Z,14.35
2023-05-11T11:32:48.072Z,10.30
2023-05-11T11:35:39.889Z,9.20
2023-05-11T11:38:29.239Z,10.40
2023-05-11T11:40:56.311Z,10.70
2023-05-11T11:43:28.610Z,10.80
2023-05-11T11:46:00.149Z,10.52
2023-05-11T11:48:31.257Z,10.93
2023-05-11T11:51:08.347Z,11.20
2023-05-11T11:53:38.320Z,8.27
2023-05-11T11:56:07.496Z,8.45
2023-05-11T11:58:46.496Z,6.50
2023-05-11T12:01:24.353Z,7.13
2023-05-11T12:04:13.623Z,7.53
2023-05-11T12:09:08.539Z,6.13
2023-05-11T12:11:35.309Z,8.15
2023-05-11T12:14:03.088Z,7.18
2023-05-11T12:16:29.946Z,7.75
2023-05-11T12:19:01.543Z,7.60
2023-05-11T12:21:33.799Z,8.68
2023-05-11T12:24:03.036Z,8.73
2023-05-11T12:26:31.536Z,8.25
2023-05-11T12:29:08.928Z,9.90
2023-05-11T12:31:40.271Z,8.50
2023-05-11T12:34:07.240Z,8.18
2023-05-11T12:36:35.003Z,9.27
2023-05-11T12:39:01.606Z,8.88
2023-05-11T12:41:28.224Z,10.38
2023-05-11T12:43:56.067Z,10.38
2023-05-11T12:46:23.400Z,8.77
2023-05-11T12:48:51.561Z,8.50
2023-05-11T12:51:55.849Z,10.23
2023-05-11T12:54:27.709Z,10.23
2023-05-11T12:56:54.416Z,8.38
2023-05-11T12:59:27.787Z,7.78
2023-05-11T13:01:54.504Z,9.48
2023-05-11T13:04:31.330Z,8.25
2023-05-11T13:06:57.998Z,8.70
2023-05-11T13:09:25.850Z,9.60
2023-05-11T13:12:18.929Z,11.13
2023-05-11T13:14:47.646Z,11.45
2023-05-11T13:17:29.697Z,8.73
2023-05-11T13:19:56.305Z,11.15
2023-05-11T13:22:23.139Z,9.88
2023-05-11T13:24:50.991Z,9.45
2023-05-11T13:27:17.662Z,8.68
2023-05-11T13:29:44.251Z,9.27
2023-05-11T13:32:12.353Z,8.55
2023-05-11T13:34:38.894Z,9.68
2023-05-11T13:37:05.581Z,9.88
2023-05-11T13:39:32.146Z,9.10
2023-05-11T13:41:58.862Z,11.23
2023-05-11T13:44:25.474Z,9.57
2023-05-11T13:46:52.125Z,9.93
2023-05-11T13:49:18.737Z,10.68
2023-05-11T13:51:45.366Z,9.90
2023-05-11T13:54:13.115Z,12.13
2023-05-11T13:56:39.826Z,10.65
2023-05-11T13:59:07.137Z,8.52
2023-05-11T14:01:33.767Z,9.05
2023-05-11T14:04:00.466Z,9.35
2023-05-11T14:06:27.089Z,11.65
2023-05-11T14:08:53.829Z,9.85
2023-05-11T14:11:21.462Z,10.20
2023-05-11T14:13:48.346Z,12.73
2023-05-11T14:16:15.103Z,11.20
2023-05-11T14:18:42.204Z,11.48
2023-05-11T14:21:08.869Z,8.52
2023-05-11T14:23:37.617Z,11.10
2023-05-11T14:26:05.650Z,10.43
2023-05-11T14:28:32.214Z,10.05
2023-05-11T14:30:58.888Z,11.13
2023-05-11T14:33:25.855Z,10.80
2023-05-11T14:35:53.830Z,11.20
2023-05-11T14:38:20.488Z,12.00
2023-05-11T14:40:47.702Z,12.68
2023-05-11T14:43:14.386Z,11.35
2023-05-11T14:45:41.394Z,12.38
2023-05-11T14:48:08.265Z,12.18
2023-05-11T14:50:34.933Z,11.68
2023-05-11T14:53:01.848Z,11.32
2023-05-11T14:55:30.543Z,10.20
2023-05-11T14:57:57.389Z,11.60
2023-05-11T15:00:23.944Z,11.18
2023-05-11T15:02:52.025Z,11.25
2023-05-11T15:05:18.809Z,10.50
2023-05-11T15:07:45.628Z,10.93
2023-05-11T15:10:14.846Z,10.00
2023-05-11T15:12:41.581Z,10.45
2023-05-11T15:15:08.847Z,10.95
2023-05-11T15:17:36.177Z,7.90
2023-05-11T15:20:03.156Z,8.77
2023-05-11T15:22:29.767Z,7.68
2023-05-11T15:24:56.324Z,9.13
2023-05-11T15:27:22.863Z,8.98
2023-05-11T15:29:49.562Z,8.85
2023-05-11T15:32:17.470Z,8.43
2023-05-11T15:34:54.955Z,8.55
2023-05-11T15:37:23.667Z,10.63
2023-05-11T15:39:51.331Z,11.55
2023-05-11T15:42:17.916Z,9.70
2023-05-11T15:44:44.501Z,11.88
2023-05-11T15:47:11.126Z,10.40
2023-05-11T15:49:37.721Z,11.13
2023-05-11T15:52:04.829Z,10.32
2023-05-11T15:54:31.727Z,12.20
2023-05-11T15:56:59.174Z,11.50
2023-05-11T15:59:25.796Z,10.82
2023-05-11T16:01:53.233Z,10.55
2023-05-11T16:04:19.801Z,10.77
2023-05-11T16:06:46.524Z,10.38
2023-05-11T16:09:13.104Z,8.48
2023-05-11T16:11:40.670Z,8.30
2023-05-11T16:14:07.311Z,8.65
2023-05-11T16:16:33.997Z,9.27
2023-05-11T16:19:00.752Z,10.13
2023-05-11T16:21:27.365Z,7.03
2023-05-11T16:23:54.293Z,8.00
2023-05-11T16:26:20.936Z,8.88
2023-05-11T16:28:47.548Z,8.18
2023-05-11T16:31:15.429Z,7.40
2023-05-11T16:33:42.125Z,7.95
2023-05-11T16:36:08.996Z,8.52
2023-05-11T16:38:35.823Z,7.53
2023-05-11T16:41:02.449Z,7.40
2023-05-11T16:43:29.164Z,10.52
2023-05-11T16:45:55.828Z,8.20
2023-05-11T16:48:22.449Z,9.93
2023-05-11T16:50:49.380Z,9.82
2023-05-11T16:53:15.966Z,9.85
2023-05-11T16:55:42.594Z,8.95
2023-05-11T16:58:09.680Z,8.38
2023-05-11T17:00:36.599Z,8.68
2023-05-11T17:03:03.310Z,9.38
2023-05-11T17:05:30.215Z,8.88
2023-05-11T17:07:56.834Z,9.00
2023-05-11T17:10:23.530Z,7.90
2023-05-11T17:12:50.191Z,8.57
2023-05-11T17:15:17.033Z,11.07
2023-05-11T17:17:43.622Z,7.97
2023-05-11T17:20:13.543Z,8.57
2023-05-11T17:22:40.192Z,9.95
2023-05-11T17:25:07.211Z,9.80
2023-05-11T17:27:36.337Z,10.45
2023-05-11T17:30:04.359Z,6.80
2023-05-11T17:32:31.476Z,6.75
2023-05-11T17:34:58.412Z,7.10
2023-05-11T17:37:31.838Z,7.25
2023-05-11T17:40:00.161Z,11.07
2023-05-11T17:42:27.021Z,7.63
2023-05-11T17:44:54.387Z,10.65
2023-05-11T17:47:21.196Z,8.70
2023-05-11T17:49:47.824Z,8.65
2023-05-11T17:52:15.123Z,9.98
2023-05-11T17:54:42.179Z,8.90
2023-05-11T17:57:08.807Z,12.13
2023-05-11T17:59:35.402Z,11.50
2023-05-11T18:02:02.019Z,10.38
2023-05-11T18:04:29.744Z,9.75
2023-05-11T18:06:56.386Z,11.85
2023-05-11T18:09:23.011Z,12.55
2023-05-11T18:11:49.621Z,10.65
2023-05-11T18:14:16.566Z,14.30
2023-05-11T18:16:43.463Z,14.38
2023-05-11T18:19:10.440Z,12.80
2023-05-11T18:21:37.980Z,15.23
2023-05-11T18:24:04.905Z,16.02
2023-05-11T18:26:31.674Z,15.32
2023-05-11T18:28:59.573Z,15.48
2023-05-11T18:31:26.250Z,16.30
2023-05-11T18:33:52.872Z,17.17
2023-05-11T18:36:19.544Z,16.50
2023-05-11T18:38:48.743Z,16.67
2023-05-11T18:41:15.479Z,18.15
2023-05-11T18:43:45.300Z,16.48
2023-05-11T18:46:11.854Z,17.63
2023-05-11T18:48:39.109Z,17.85
2023-05-11T18:51:06.420Z,19.25
2023-05-11T18:53:33.339Z,17.75
2023-05-11T18:56:00.002Z,19.60
2023-05-11T18:58:27.094Z,20.27
2023-05-11T19:00:53.762Z,21.90
2023-05-11T19:03:21.924Z,19.23
2023-05-11T19:05:49.467Z,23.00
2023-05-11T19:08:16.634Z,20.73
2023-05-11T19:10:45.178Z,23.20
2023-05-11T19:13:12.993Z,24.77
2023-05-11T19:15:40.226Z,29.63
2023-05-11T19:18:07.109Z,26.45
2023-05-11T19:20:34.763Z,24.33
2023-05-11T19:23:01.795Z,23.80
2023-05-11T19:25:28.475Z,28.30
2023-05-11T19:27:57.156Z,27.70
2023-05-11T19:30:24.675Z,28.30
2023-05-11T19:32:51.328Z,26.80
2023-05-11T19:35:19.027Z,29.25
2023-05-11T19:37:48.027Z,30.33
2023-05-11T19:42:46.000Z,31.00
2023-05-11T19:45:15.598Z,32.30
2023-05-11T19:50:09.245Z,32.38
2023-05-11T19:52:36.759Z,30.63
2023-05-11T19:55:04.413Z,31.33
2023-05-11T19:57:37.026Z,30.45
2023-05-11T20:00:05.579Z,34.28
2023-05-11T20:02:32.599Z,33.28
2023-05-11T20:04:59.872Z,30.05
2023-05-11T20:07:27.528Z,33.00
2023-05-11T20:09:54.842Z,34.53
2023-05-11T20:12:21.458Z,32.08
2023-05-11T20:14:48.174Z,31.83
2023-05-11T20:17:14.848Z,31.42
2023-05-11T20:19:41.604Z,28.08
2023-05-11T20:22:08.180Z,30.02
2023-05-11T20:24:34.748Z,28.13
2023-05-11T20:27:05.639Z,29.80
2023-05-11T20:29:32.221Z,29.45
2023-05-11T20:31:58.856Z,28.75
2023-05-11T20:34:25.501Z,29.92
2023-05-11T20:36:53.938Z,33.33
2023-05-11T20:39:21.978Z,31.20
2023-05-11T20:41:50.068Z,34.70
2023-05-11T20:44:17.642Z,34.90
2023-05-11T20:46:44.574Z,38.42
2023-05-11T20:49:16.722Z,41.63
2023-05-11T20:51:51.247Z,42.28
2023-05-11T20:54:18.102Z,45.03
2023-05-11T20:56:44.682Z,41.63
2023-05-11T21:00:03.830Z,39.60
2023-05-11T21:01:59.256Z,46.70
2023-05-11T21:04:26.034Z,42.88
2023-05-11T21:06:55.567Z,46.20
2023-05-11T21:11:48.977Z,47.45
2023-05-11T21:14:15.790Z,48.90
2023-05-11T21:16:42.783Z,52.83
2023-05-11T21:19:09.593Z,52.15
2023-05-11T21:21:36.272Z,55.60
2023-05-11T21:24:03.896Z,56.03
2023-05-11T21:26:30.486Z,57.10
2023-05-11T21:28:57.354Z,58.78
2023-05-11T21:31:24.075Z,58.13
2023-05-11T21:33:51.842Z,58.13
2023-05-11T21:36:18.591Z,58.97
2023-05-11T21:38:45.238Z,60.53
2023-05-11T21:41:11.909Z,58.72
2023-05-11T21:43:38.459Z,65.72
2023-05-11T21:46:05.263Z,66.15
2023-05-11T21:48:31.960Z,61.33
2023-05-11T21:50:58.536Z,66.82
2023-05-11T21:53:25.096Z,65.60
2023-05-11T21:55:51.649Z,64.00
2023-05-11T21:58:18.278Z,63.72
2023-05-11T22:00:45.278Z,64.53
2023-05-11T22:03:12.096Z,64.13
2023-05-11T22:05:38.771Z,67.63
2023-05-11T22:08:14.066Z,70.85
2023-05-11T22:10:42.894Z,71.45
2023-05-11T22:13:09.530Z,69.50
2023-05-11T22:15:36.274Z,72.10
2023-05-11T22:18:03.559Z,68.53
2023-05-11T22:20:31.671Z,69.50
2023-05-11T22:22:59.118Z,74.40
2023-05-11T22:25:25.914Z,75.22
2023-05-11T22:27:52.639Z,75.82
2023-05-11T22:30:19.912Z,77.95
2023-05-11T22:32:47.201Z,76.93
2023-05-11T22:35:13.905Z,74.38
2023-05-11T22:37:40.470Z,76.38
2023-05-11T22:40:07.740Z,72.22
2023-05-11T22:42:34.729Z,79.82
2023-05-11T22:45:01.341Z,76.93
2023-05-11T22:47:28.037Z,79.53
2023-05-11T22:49:54.883Z,78.57
2023-05-11T22:52:22.625Z,76.55
2023-05-11T22:54:55.240Z,76.72
2023-05-11T22:57:23.900Z,80.03
2023-05-11T22:59:50.648Z,85.00
2023-05-11T23:02:17.317Z,82.25
2023-05-11T23:04:44.306Z,85.40
2023-05-11T23:07:12.718Z,82.22
2023-05-11T23:09:39.398Z,81.80
2023-05-11T23:12:06.243Z,84.32
2023-05-11T23:14:32.815Z,77.32
2023-05-11T23:16:59.470Z,80.15
2023-05-11T23:19:26.209Z,76.55
2023-05-11T23:21:53.106Z,73.38
2023-05-11T23:24:19.666Z,73.72
2023-05-11T23:26:46.293Z,73.28
2023-05-11T23:29:12.899Z,75.80
2023-05-11T23:31:42.789Z,69.38
2023-05-11T23:34:09.433Z,72.32
2023-05-11T23:36:36.025Z,64.60
2023-05-11T23:39:02.628Z,68.85
2023-05-11T23:41:29.281Z,60.67
2023-05-11T23:43:55.877Z,66.22
2023-05-11T23:46:22.393Z,66.38
2023-05-11T23:48:48.987Z,70.40
2023-05-11T23:51:16.504Z,69.88
2023-05-11T23:53:43.227Z,69.07
2023-05-11T23:56:09.948Z,68.45
2023-05-11T23:58:36.504Z,65.03
